Hlavní strana
METAR-TAF:

METAR-TAF

Letiště :

Bizerte, Tunisko

zeměpisná šířka: 37-15N, zeměpisná délka: 009-48E, výška: 5 m

Aktuální stav počasí

Zpráva byla vytvořena před 12 minutami, v 20:00 UTC
Jihozápadní vítr 4 kt
Teplota 14°C
Vlhkost vzduchu 72%
Tlak 1011 hPa
Viditelnost 10 km a více
Polojasno ve výšce 2000 ft
Polojasno ve výšce 3000 ft

METAR: DTTB 222000Z 23004KT 9999 SCT020 SCT030 14/09 Q1011

Čas: 21:12 (20:12 UTC)

Předpověď počasí

Zpráva byla vytvořena před 2 hodinami a 12 minutami, v 18:00 UTC
Předpověď platná od 22 v 19 UTC do 23 v 04 UTC
vítr z různých směrů 2 kt
Viditelnost 10 km a více
Skoro jasno ve výšce 2000 ft
Polojasno ve výšce 3000 ft
Změna
od 22 v 19 UTC do 22 v 21 UTC
Západní vítr 15 kt
Pravděpodobnost 40% :
Dočasný
od 22 v 22 UTC do 23 v 04 UTC
Západní vítr 17 kt s nárazy do 29 kt
Skoro jasno ve výšce 2000 ft, Cumulonimbus.
bouřka, déšť

TAF: DTTB 221800Z 2219/2304 VRB02KT 9999 FEW020 SCT030 BECMG 2219/2221 26015KT PROB40 TEMPO 2222/2304 26017G29KT TSRA FEW020CB

Stav a předpovědi počasí z více než 4 000 letišť (zprávy METAR a TAF).

Červené a žluté tečky na mapě představují dostupné meteorologické stanice.

Když kurzor umístíte na tečku, zobrazí se název stanice.

Pak kliknutím zobrazíte stav a předpověď počasí.

Chcete-li změnit mapu, kliknutím na zelené tlačítko se znaménkem +mapu přiblížíte, kliknutím na zelené tlačítko se znaménkem – mapu oddálíte a kliknutím na zelené šipky přejdete na sousední mapy.


METAR-TAF: